createdAt,value
2018-04-29T00:01:15.669Z,94.00
2018-04-29T00:03:41.676Z,94.00
2018-04-29T00:06:07.874Z,94.00
2018-04-29T00:08:34.062Z,93.70
2018-04-29T00:11:00.061Z,93.80
2018-04-29T00:13:26.053Z,94.00
2018-04-29T00:15:52.052Z,94.00
2018-04-29T00:18:18.045Z,94.10
2018-04-29T00:20:44.022Z,94.20
2018-04-29T00:23:10.802Z,94.40
2018-04-29T00:25:36.790Z,94.40
2018-04-29T00:28:03.520Z,94.40
2018-04-29T00:30:30.228Z,94.40
2018-04-29T00:32:56.250Z,94.40
2018-04-29T00:35:22.208Z,94.30
2018-04-29T00:37:49.013Z,94.50
2018-04-29T00:40:15.011Z,94.40
2018-04-29T00:42:40.997Z,94.40
2018-04-29T00:45:06.985Z,95.00
2018-04-29T00:47:33.006Z,94.70
2018-04-29T00:49:59.002Z,94.90
2018-04-29T00:52:24.998Z,94.60
2018-04-29T00:54:51.722Z,94.10
2018-04-29T00:57:18.673Z,94.20
2018-04-29T00:59:45.398Z,94.20
2018-04-29T01:02:11.400Z,94.30
2018-04-29T01:04:37.416Z,94.40
2018-04-29T01:07:03.381Z,94.40
2018-04-29T01:09:30.125Z,94.40
2018-04-29T01:11:56.078Z,94.40
2018-04-29T01:14:22.090Z,94.70
2018-04-29T01:16:48.793Z,94.40
2018-04-29T01:19:14.837Z,94.40
2018-04-29T01:21:41.580Z,94.40
2018-04-29T01:24:08.326Z,94.40
2018-04-29T01:26:34.307Z,94.50
2018-04-29T01:29:00.300Z,94.60
2018-04-29T01:31:26.265Z,94.30
2018-04-29T01:33:52.265Z,94.50
2018-04-29T01:36:18.253Z,94.40
2018-04-29T01:38:44.245Z,94.30
2018-04-29T01:41:10.951Z,93.90
2018-04-29T01:43:36.953Z,93.90
2018-04-29T01:46:02.934Z,93.90
2018-04-29T01:48:29.656Z,94.20
2018-04-29T01:50:55.627Z,94.20
2018-04-29T01:53:21.625Z,94.00
2018-04-29T01:55:48.357Z,94.10
2018-04-29T01:58:15.165Z,94.20
2018-04-29T02:00:41.351Z,94.20
2018-04-29T02:03:07.381Z,93.90
2018-04-29T02:05:33.362Z,93.60
2018-04-29T02:08:00.114Z,93.60
2018-04-29T02:10:26.819Z,93.60
2018-04-29T02:12:52.801Z,93.60
2018-04-29T02:15:18.780Z,93.70
2018-04-29T02:17:44.753Z,93.70
2018-04-29T02:20:10.761Z,93.70
2018-04-29T02:22:37.483Z,93.80
2018-04-29T02:25:04.237Z,93.50
2018-04-29T02:27:30.961Z,93.40
2018-04-29T02:29:57.688Z,93.80
2018-04-29T02:32:23.657Z,93.50
2018-04-29T02:34:49.653Z,93.30
2018-04-29T02:37:15.603Z,93.50
2018-04-29T02:39:41.615Z,93.70
2018-04-29T02:42:07.602Z,94.00
2018-04-29T02:44:40.389Z,94.10
2018-04-29T02:47:06.358Z,93.80
2018-04-29T02:49:32.349Z,93.70
2018-04-29T02:51:59.073Z,93.20
2018-04-29T02:54:25.077Z,93.20
2018-04-29T02:56:51.841Z,93.10
2018-04-29T02:59:17.850Z,93.10
2018-04-29T03:01:43.907Z,93.20
2018-04-29T03:04:09.930Z,93.20
2018-04-29T03:06:36.669Z,93.20
2018-04-29T03:09:03.425Z,93.10
2018-04-29T03:11:29.408Z,93.00
2018-04-29T03:13:55.399Z,93.30
2018-04-29T03:16:21.373Z,93.30
2018-04-29T03:18:48.097Z,93.00
2018-04-29T03:21:14.854Z,92.70
2018-04-29T03:23:40.861Z,92.70
2018-04-29T03:26:06.856Z,92.90
2018-04-29T03:28:32.829Z,93.00
2018-04-29T03:30:59.576Z,92.80
2018-04-29T03:33:25.573Z,92.80
2018-04-29T03:35:51.594Z,92.80
2018-04-29T03:38:17.565Z,92.80
2018-04-29T03:40:43.597Z,93.10
2018-04-29T03:43:09.569Z,93.10
2018-04-29T03:45:36.324Z,93.00
2018-04-29T03:48:02.317Z,92.90
2018-04-29T03:50:28.324Z,93.20
2018-04-29T03:52:54.272Z,93.50
2018-04-29T03:55:20.260Z,93.90
2018-04-29T03:57:52.336Z,94.20
2018-04-29T04:00:24.427Z,93.70
2018-04-29T04:02:56.505Z,93.60
2018-04-29T04:05:22.637Z,93.90
2018-04-29T04:07:48.626Z,93.70
2018-04-29T04:10:14.629Z,94.00
2018-04-29T04:12:40.608Z,94.20
2018-04-29T04:15:07.341Z,94.60
2018-04-29T04:17:34.058Z,94.70
2018-04-29T04:20:00.061Z,94.70
2018-04-29T04:22:26.046Z,94.60
2018-04-29T04:24:52.058Z,94.50
2018-04-29T04:27:18.037Z,94.70
2018-04-29T04:29:44.170Z,94.90
2018-04-29T04:32:12.869Z,95.40
2018-04-29T04:34:40.766Z,94.90
2018-04-29T04:37:06.766Z,94.90
2018-04-29T04:39:32.766Z,94.70
2018-04-29T04:41:58.766Z,94.70
2018-04-29T04:44:25.121Z,95.20
2018-04-29T04:46:51.269Z,94.70
2018-04-29T04:49:17.266Z,94.50
2018-04-29T04:51:43.266Z,94.90
2018-04-29T04:54:09.260Z,94.40
2018-04-29T04:56:36.005Z,95.20
2018-04-29T04:59:01.992Z,95.30
2018-04-29T05:01:28.092Z,95.50
2018-04-29T05:03:54.114Z,95.30
2018-04-29T05:06:20.097Z,95.30
2018-04-29T05:08:46.797Z,96.00
2018-04-29T05:11:12.769Z,96.00
2018-04-29T05:13:53.660Z,96.00
2018-04-29T05:16:22.427Z,95.90
2018-04-29T05:18:49.193Z,96.20
2018-04-29T05:21:15.184Z,96.50
2018-04-29T05:23:41.208Z,95.80
2018-04-29T05:26:08.063Z,95.80
2018-04-29T05:28:34.193Z,95.80
2018-04-29T05:31:00.221Z,96.00
2018-04-29T05:33:26.194Z,96.40
2018-04-29T05:35:55.794Z,96.20
2018-04-29T05:38:21.770Z,96.50
2018-04-29T05:40:47.774Z,97.20
2018-04-29T05:43:14.488Z,96.00
2018-04-29T05:45:40.482Z,96.00
2018-04-29T05:48:06.561Z,95.40
2018-04-29T05:50:32.719Z,94.60
2018-04-29T05:52:58.690Z,95.20
2018-04-29T05:55:25.513Z,95.20
2018-04-29T05:57:51.513Z,95.20
2018-04-29T06:00:17.559Z,94.70
2018-04-29T06:02:43.489Z,94.90
2018-04-29T06:05:09.485Z,94.50
2018-04-29T06:07:35.477Z,94.30
2018-04-29T06:10:01.461Z,94.60
2018-04-29T06:12:27.462Z,94.50
2018-04-29T06:14:53.488Z,94.00
2018-04-29T06:17:19.481Z,93.80
2018-04-29T06:19:45.488Z,93.50
2018-04-29T06:22:12.219Z,92.90
2018-04-29T06:24:39.005Z,93.20
2018-04-29T06:27:05.008Z,93.10
2018-04-29T06:29:31.770Z,92.70
2018-04-29T06:31:57.816Z,92.70
2018-04-29T06:34:23.745Z,92.60
2018-04-29T06:36:50.321Z,92.70
2018-04-29T06:39:16.320Z,92.50
2018-04-29T06:41:42.341Z,92.50
2018-04-29T06:44:08.305Z,92.50
2018-04-29T06:46:34.312Z,92.10
2018-04-29T06:49:00.279Z,92.10
2018-04-29T06:51:26.289Z,92.00
2018-04-29T06:53:52.282Z,92.10
2018-04-29T06:56:18.293Z,91.60
2018-04-29T06:58:45.018Z,92.00
2018-04-29T07:01:11.014Z,92.00
2018-04-29T07:03:37.042Z,92.20
2018-04-29T07:06:03.034Z,92.40
2018-04-29T07:08:29.030Z,92.30
2018-04-29T07:10:55.769Z,92.50
2018-04-29T07:13:22.541Z,92.60
2018-04-29T07:15:48.537Z,92.60
2018-04-29T07:18:15.244Z,93.40
2018-04-29T07:20:41.211Z,93.40
2018-04-29T07:23:07.227Z,93.00
2018-04-29T07:25:33.962Z,92.10
2018-04-29T07:28:00.701Z,91.80
2018-04-29T07:30:27.421Z,91.90
2018-04-29T07:32:53.404Z,91.90
2018-04-29T07:35:19.373Z,91.80
2018-04-29T07:37:45.367Z,91.90
2018-04-29T07:40:11.423Z,92.00
2018-04-29T07:42:37.357Z,91.80
2018-04-29T07:45:03.321Z,91.80
2018-04-29T07:47:29.301Z,91.40
2018-04-29T07:49:55.270Z,91.60
2018-04-29T07:52:21.423Z,91.50
2018-04-29T07:54:47.267Z,91.80
2018-04-29T07:57:14.010Z,91.70
2018-04-29T07:59:39.978Z,91.70
2018-04-29T08:02:05.965Z,90.80
2018-04-29T08:04:32.681Z,91.70
2018-04-29T08:06:58.817Z,91.70
2018-04-29T08:09:25.057Z,91.50
2018-04-29T08:11:51.797Z,91.90
2018-04-29T08:14:18.513Z,92.50
2018-04-29T08:16:44.842Z,92.50
2018-04-29T08:19:11.169Z,91.80
2018-04-29T08:21:38.525Z,91.20
2018-04-29T08:24:05.477Z,91.20
2018-04-29T08:26:31.462Z,91.20
2018-04-29T08:28:57.462Z,91.00
2018-04-29T08:31:23.463Z,90.30
2018-04-29T08:33:49.493Z,90.00
2018-04-29T08:36:16.241Z,88.30
2018-04-29T08:38:42.973Z,90.00
2018-04-29T08:41:09.693Z,89.80
2018-04-29T08:43:35.685Z,89.80
2018-04-29T08:46:01.657Z,89.40
2018-04-29T08:48:30.735Z,90.00
2018-04-29T08:50:57.657Z,90.00
2018-04-29T08:53:23.651Z,89.90
2018-04-29T08:55:49.718Z,89.80
2018-04-29T08:58:15.732Z,89.10
2018-04-29T09:00:41.709Z,84.70
2018-04-29T09:03:07.699Z,86.20
2018-04-29T09:05:33.680Z,86.50
2018-04-29T09:07:59.725Z,87.00
2018-04-29T09:10:25.687Z,86.20
2018-04-29T09:12:52.405Z,86.60
2018-04-29T09:15:18.361Z,86.60
2018-04-29T09:17:44.354Z,86.30
2018-04-29T09:20:10.392Z,87.40
2018-04-29T09:22:37.116Z,86.60
2018-04-29T09:25:03.089Z,86.60
2018-04-29T09:27:29.121Z,87.30
2018-04-29T09:29:55.105Z,86.90
2018-04-29T09:32:21.831Z,87.00
2018-04-29T09:34:47.833Z,87.00
2018-04-29T09:37:13.941Z,85.20
2018-04-29T09:39:40.644Z,84.80
2018-04-29T09:42:06.629Z,84.70
2018-04-29T09:44:32.600Z,86.40
2018-04-29T09:46:58.573Z,84.30
2018-04-29T09:49:24.558Z,83.60
2018-04-29T09:51:50.702Z,83.60
2018-04-29T09:54:16.685Z,83.80
2018-04-29T09:56:43.424Z,83.40
2018-04-29T09:59:09.430Z,82.70
2018-04-29T10:01:36.161Z,83.10
2018-04-29T10:04:02.188Z,83.10
2018-04-29T10:06:28.156Z,80.60
2018-04-29T10:08:54.150Z,81.90
2018-04-29T10:11:20.889Z,78.80
2018-04-29T10:13:47.632Z,79.80
2018-04-29T10:16:13.613Z,79.80
2018-04-29T10:18:39.605Z,79.00
2018-04-29T10:23:55.846Z,81.20
2018-04-29T10:26:21.781Z,81.10
2018-04-29T10:28:47.734Z,81.40
2018-04-29T10:31:13.708Z,80.50
2018-04-29T10:33:39.708Z,80.20
2018-04-29T10:36:05.672Z,80.70
2018-04-29T10:38:31.664Z,80.60
2018-04-29T10:40:57.637Z,79.70
2018-04-29T10:43:24.388Z,80.10
2018-04-29T10:45:50.349Z,80.10
2018-04-29T10:48:16.340Z,77.50
2018-04-29T10:50:42.321Z,76.40
2018-04-29T10:53:08.609Z,78.80
2018-04-29T10:55:34.642Z,73.50
2018-04-29T10:58:00.649Z,77.40
2018-04-29T11:00:26.637Z,76.60
2018-04-29T11:02:53.380Z,76.60
2018-04-29T11:05:19.376Z,76.60
2018-04-29T11:07:45.373Z,75.20
2018-04-29T11:10:11.382Z,74.70
2018-04-29T11:12:37.396Z,75.60
2018-04-29T11:15:04.144Z,74.40
2018-04-29T11:17:30.889Z,72.30
2018-04-29T11:19:56.897Z,72.10
2018-04-29T11:22:23.691Z,75.40
2018-04-29T11:24:49.662Z,75.50
2018-04-29T11:27:16.394Z,72.40
2018-04-29T11:29:43.130Z,70.40
2018-04-29T11:32:09.194Z,70.30
2018-04-29T11:34:35.189Z,67.80
2018-04-29T11:37:01.913Z,70.20
2018-04-29T11:39:27.917Z,70.00
2018-04-29T11:41:53.900Z,69.20
2018-04-29T11:44:19.912Z,65.40
2018-04-29T11:46:45.924Z,63.70
2018-04-29T11:49:12.669Z,63.20
2018-04-29T11:51:38.633Z,63.30
2018-04-29T11:54:04.614Z,63.30
2018-04-29T11:56:30.596Z,64.10
2018-04-29T11:58:56.624Z,64.70
2018-04-29T12:01:22.628Z,63.80
2018-04-29T12:03:48.657Z,64.70
2018-04-29T12:06:14.640Z,66.10
2018-04-29T12:08:40.686Z,65.00
2018-04-29T12:11:06.700Z,63.70
2018-04-29T12:13:32.714Z,64.70
2018-04-29T12:15:59.427Z,64.20
2018-04-29T12:18:26.182Z,63.90
2018-04-29T12:20:52.891Z,63.10
2018-04-29T12:23:18.848Z,63.10
2018-04-29T12:25:44.865Z,64.80
2018-04-29T12:28:11.608Z,66.20
2018-04-29T12:30:38.349Z,66.30
2018-04-29T12:33:04.345Z,66.20
2018-04-29T12:35:30.361Z,69.10
2018-04-29T12:37:56.332Z,69.30
2018-04-29T12:40:22.317Z,70.70
2018-04-29T12:42:48.321Z,70.50
2018-04-29T12:45:15.122Z,69.50
2018-04-29T12:47:41.416Z,68.50
2018-04-29T12:50:08.149Z,69.80
2018-04-29T12:52:35.337Z,71.50
2018-04-29T12:55:01.367Z,71.50
2018-04-29T12:57:27.382Z,71.90
2018-04-29T12:59:54.117Z,73.50
2018-04-29T13:02:20.074Z,73.50
2018-04-29T13:04:46.061Z,74.20
2018-04-29T13:07:12.540Z,74.00
2018-04-29T13:09:38.546Z,74.30
2018-04-29T13:12:05.256Z,75.60
2018-04-29T13:14:32.001Z,75.70
2018-04-29T13:16:57.961Z,75.70
2018-04-29T13:19:23.949Z,75.90
2018-04-29T13:21:49.980Z,78.30
2018-04-29T13:24:15.977Z,79.10
2018-04-29T13:26:42.696Z,78.70
2018-04-29T13:29:08.829Z,78.70
2018-04-29T13:31:34.817Z,79.40
2018-04-29T13:34:00.817Z,80.50
2018-04-29T13:36:26.813Z,81.40
2018-04-29T13:38:52.790Z,81.60
2018-04-29T13:41:18.935Z,82.20
2018-04-29T13:43:44.980Z,81.10
2018-04-29T13:46:11.724Z,80.40
2018-04-29T13:48:37.696Z,80.30
2018-04-29T13:51:03.689Z,80.60
2018-04-29T13:53:30.413Z,84.20
2018-04-29T13:55:56.417Z,83.50
2018-04-29T13:58:22.409Z,83.50
2018-04-29T14:00:48.453Z,83.00
2018-04-29T14:03:14.433Z,82.80
2018-04-29T14:05:40.581Z,82.90
2018-04-29T14:08:07.378Z,82.70
2018-04-29T14:10:33.445Z,82.80
2018-04-29T14:12:59.431Z,82.90
2018-04-29T14:15:25.384Z,84.10
2018-04-29T14:17:52.099Z,83.30
2018-04-29T14:20:18.849Z,83.40
2018-04-29T14:22:44.821Z,83.30
2018-04-29T14:25:10.829Z,82.80
2018-04-29T14:27:36.793Z,84.60
2018-04-29T14:30:02.797Z,84.60
2018-04-29T14:32:28.776Z,84.40
2018-04-29T14:34:55.500Z,84.40
2018-04-29T14:37:21.505Z,84.40
2018-04-29T14:39:47.505Z,84.10
2018-04-29T14:42:13.486Z,83.90
2018-04-29T14:44:39.508Z,83.50
2018-04-29T14:47:05.489Z,83.60
2018-04-29T14:49:31.556Z,84.40
2018-04-29T14:51:57.473Z,84.60
2018-04-29T14:54:24.257Z,85.60
2018-04-29T14:56:50.261Z,85.70
2018-04-29T14:59:16.233Z,85.70
2018-04-29T15:01:42.237Z,86.10
2018-04-29T15:04:08.246Z,85.60
2018-04-29T15:06:34.249Z,85.90
2018-04-29T15:09:00.249Z,87.50
2018-04-29T15:11:26.245Z,87.70
2018-04-29T15:13:52.225Z,87.60
2018-04-29T15:16:18.221Z,88.10
2018-04-29T15:18:50.305Z,87.70
2018-04-29T15:21:16.365Z,87.50
2018-04-29T15:23:43.062Z,86.80
2018-04-29T15:26:09.073Z,86.80
2018-04-29T15:28:35.790Z,87.00
2018-04-29T15:31:01.790Z,87.00
2018-04-29T15:33:27.790Z,87.30
2018-04-29T15:35:53.777Z,87.20
2018-04-29T15:38:20.502Z,88.70
2018-04-29T15:40:47.283Z,88.50
2018-04-29T15:43:13.253Z,88.40
2018-04-29T15:45:39.246Z,88.30
2018-04-29T15:48:05.212Z,88.40
2018-04-29T15:50:31.281Z,88.40
2018-04-29T15:52:57.256Z,88.60
2018-04-29T15:55:24.019Z,88.20
2018-04-29T15:57:50.067Z,88.90
2018-04-29T16:00:16.060Z,88.20
2018-04-29T16:02:42.773Z,88.30
2018-04-29T16:05:08.861Z,88.30
2018-04-29T16:07:34.852Z,88.70
2018-04-29T16:10:01.569Z,88.40
2018-04-29T16:12:27.596Z,88.30
2018-04-29T16:14:54.357Z,87.20
2018-04-29T16:17:21.090Z,86.90
2018-04-29T16:19:47.072Z,86.80
2018-04-29T16:22:13.048Z,86.70
2018-04-29T16:24:39.011Z,87.00
2018-04-29T16:27:05.607Z,88.10
2018-04-29T16:29:32.294Z,88.20
2018-04-29T16:31:58.238Z,88.20
2018-04-29T16:34:24.172Z,87.80
2018-04-29T16:36:50.142Z,87.30
2018-04-29T16:39:16.109Z,87.90
2018-04-29T16:41:42.117Z,87.90
2018-04-29T16:44:08.122Z,88.20
2018-04-29T16:46:34.139Z,88.00
2018-04-29T16:49:00.101Z,89.70
2018-04-29T16:51:26.191Z,89.60
2018-04-29T16:53:52.281Z,89.80
2018-04-29T16:56:18.349Z,89.40
2018-04-29T16:58:44.366Z,89.50
2018-04-29T17:01:10.358Z,90.00
2018-04-29T17:03:37.101Z,89.80
2018-04-29T17:06:03.099Z,89.90
2018-04-29T17:08:29.095Z,89.70
2018-04-29T17:10:55.098Z,89.90
2018-04-29T17:13:21.097Z,89.30
2018-04-29T17:15:47.077Z,89.00
2018-04-29T17:18:13.065Z,89.10
2018-04-29T17:20:39.049Z,88.90
2018-04-29T17:23:05.797Z,88.30
2018-04-29T17:25:31.811Z,88.30
2018-04-29T17:27:58.906Z,88.60
2018-04-29T17:30:25.082Z,88.60
2018-04-29T17:32:51.884Z,88.20
2018-04-29T17:35:17.981Z,88.20
2018-04-29T17:37:43.981Z,88.10
2018-04-29T17:40:09.971Z,87.60
2018-04-29T17:42:35.970Z,87.30
2018-04-29T17:45:01.970Z,88.30
2018-04-29T17:47:28.235Z,88.70
2018-04-29T17:49:54.217Z,88.50
2018-04-29T17:52:20.222Z,87.70
2018-04-29T17:54:46.951Z,88.40
2018-04-29T17:57:12.957Z,88.40
2018-04-29T17:59:38.938Z,89.10
2018-04-29T18:02:04.933Z,89.40
2018-04-29T18:04:31.656Z,90.30
2018-04-29T18:06:57.645Z,90.30
2018-04-29T18:09:23.609Z,89.60
2018-04-29T18:11:49.610Z,89.40
2018-04-29T18:14:15.625Z,89.50
2018-04-29T18:16:41.610Z,89.90
2018-04-29T18:19:08.421Z,89.50
2018-04-29T18:21:34.501Z,89.50
2018-04-29T18:24:00.501Z,90.00
2018-04-29T18:26:26.477Z,90.20
2018-04-29T18:28:53.232Z,91.30
2018-04-29T18:31:19.184Z,91.20
2018-04-29T18:33:45.912Z,91.50
2018-04-29T18:36:12.624Z,91.40
2018-04-29T18:38:38.613Z,91.40
2018-04-29T18:41:04.593Z,91.60
2018-04-29T18:43:31.354Z,92.00
2018-04-29T18:45:57.345Z,92.00
2018-04-29T18:48:23.351Z,91.50
2018-04-29T18:50:49.495Z,91.50
2018-04-29T18:53:15.356Z,91.50
2018-04-29T18:55:41.370Z,91.80
2018-04-29T18:58:07.361Z,91.90
2018-04-29T19:00:34.104Z,91.60
2018-04-29T19:03:00.180Z,91.60
2018-04-29T19:05:32.229Z,91.80
2018-04-29T19:07:58.416Z,92.00
2018-04-29T19:10:24.417Z,91.80
2018-04-29T19:12:50.483Z,91.60
2018-04-29T19:15:16.489Z,91.60
2018-04-29T19:17:42.493Z,91.60
2018-04-29T19:20:08.517Z,91.60
2018-04-29T19:22:34.593Z,91.90
2018-04-29T19:25:01.530Z,91.70
2018-04-29T19:27:29.141Z,91.70
2018-04-29T19:29:55.802Z,91.70
2018-04-29T19:32:22.564Z,92.00
2018-04-29T19:34:48.597Z,92.00
2018-04-29T19:37:14.597Z,92.10
2018-04-29T19:39:40.694Z,91.80
2018-04-29T19:42:06.717Z,92.00
2018-04-29T19:44:32.820Z,92.20
2018-04-29T19:46:58.820Z,92.00
2018-04-29T19:49:25.571Z,91.80
2018-04-29T19:51:51.541Z,91.80
2018-04-29T19:54:17.538Z,92.10
2018-04-29T19:56:43.537Z,92.10
2018-04-29T19:59:10.264Z,92.10
2018-04-29T20:01:36.968Z,92.20
2018-04-29T20:04:02.960Z,92.20
2018-04-29T20:06:28.992Z,92.30
2018-04-29T20:08:54.977Z,92.60
2018-04-29T20:11:21.721Z,93.30
2018-04-29T20:13:48.462Z,93.10
2018-04-29T20:16:14.478Z,93.10
2018-04-29T20:18:41.200Z,92.90
2018-04-29T20:21:07.173Z,92.90
2018-04-29T20:23:33.165Z,93.00
2018-04-29T20:25:59.873Z,93.70
2018-04-29T20:28:25.864Z,93.70
2018-04-29T20:30:51.840Z,93.50
2018-04-29T20:33:18.590Z,93.80
2018-04-29T20:35:45.317Z,93.50
2018-04-29T20:38:12.072Z,93.10
2018-04-29T20:40:38.845Z,93.30
2018-04-29T20:43:04.861Z,93.30
2018-04-29T20:45:31.577Z,92.80
2018-04-29T20:47:57.589Z,92.80
2018-04-29T20:50:23.761Z,92.70
2018-04-29T20:52:50.248Z,92.80
2018-04-29T20:55:16.387Z,92.70
2018-04-29T20:57:42.414Z,92.40
2018-04-29T21:00:09.240Z,92.20
2018-04-29T21:02:35.221Z,92.20
2018-04-29T21:05:01.205Z,91.70
2018-04-29T21:07:27.943Z,91.30
2018-04-29T21:09:53.993Z,91.30
2018-04-29T21:12:19.997Z,91.10
2018-04-29T21:14:46.775Z,90.80
2018-04-29T21:17:12.779Z,90.90
2018-04-29T21:19:38.808Z,90.60
2018-04-29T21:22:04.817Z,90.40
2018-04-29T21:24:31.547Z,89.80
2018-04-29T21:26:57.511Z,89.70
2018-04-29T21:29:23.496Z,89.70
2018-04-29T21:31:50.297Z,89.80
2018-04-29T21:34:16.573Z,89.50
2018-04-29T21:36:42.729Z,89.70
2018-04-29T21:39:09.080Z,89.40
2018-04-29T21:41:35.170Z,89.70
2018-04-29T21:44:01.166Z,89.50
2018-04-29T21:46:27.858Z,89.00
2018-04-29T21:48:53.869Z,89.00
2018-04-29T21:51:19.842Z,88.40
2018-04-29T21:53:45.836Z,88.90
2018-04-29T21:56:11.836Z,89.00
2018-04-29T21:58:37.825Z,89.40
2018-04-29T22:01:03.796Z,88.40
2018-04-29T22:03:29.784Z,88.60
2018-04-29T22:05:56.490Z,88.60
2018-04-29T22:08:22.465Z,88.50
2018-04-29T22:10:48.432Z,88.80
2018-04-29T22:13:14.400Z,88.70
2018-04-29T22:15:40.384Z,89.20
2018-04-29T22:18:06.361Z,88.80
2018-04-29T22:20:32.365Z,88.90
2018-04-29T22:22:58.337Z,89.50
2018-04-29T22:25:24.333Z,89.50
2018-04-29T22:27:50.316Z,89.00
2018-04-29T22:30:17.059Z,88.90
2018-04-29T22:32:43.840Z,89.00
2018-04-29T22:35:10.542Z,88.90
2018-04-29T22:37:37.282Z,89.00
2018-04-29T22:40:04.009Z,88.90
2018-04-29T22:42:29.989Z,88.80
2018-04-29T22:44:55.973Z,88.60
2018-04-29T22:47:21.966Z,89.40
2018-04-29T22:49:48.054Z,89.50
2018-04-29T22:52:14.047Z,89.50
2018-04-29T22:54:40.046Z,89.50
2018-04-29T22:57:06.041Z,89.50
2018-04-29T22:59:32.033Z,89.50
2018-04-29T23:01:58.029Z,89.50
2018-04-29T23:04:24.752Z,89.50
2018-04-29T23:06:50.733Z,89.50
2018-04-29T23:09:16.717Z,89.50
2018-04-29T23:11:43.441Z,89.60
2018-04-29T23:14:09.414Z,89.60
2018-04-29T23:16:35.421Z,89.50
2018-04-29T23:19:01.394Z,90.00
2018-04-29T23:21:27.373Z,90.20
2018-04-29T23:23:53.353Z,90.10
2018-04-29T23:26:19.342Z,90.20
2018-04-29T23:28:45.286Z,90.40
2018-04-29T23:31:11.247Z,90.40
2018-04-29T23:33:37.957Z,90.20
2018-04-29T23:36:04.116Z,90.20
2018-04-29T23:38:30.117Z,90.20
2018-04-29T23:40:56.117Z,90.20
2018-04-29T23:43:22.133Z,90.30
2018-04-29T23:45:48.146Z,90.40
2018-04-29T23:48:14.125Z,90.30
2018-04-29T23:50:40.889Z,90.20
2018-04-29T23:53:06.886Z,90.20
2018-04-29T23:55:33.653Z,90.80
2018-04-29T23:58:00.401Z,90.70
